Gure Fatima — EAWO — position and weather

sailwx.info

Track history (hours):
 
Tides and Currents Weather Stations Pressure Air Temp Water Temp Dewpoint Dewpoint Depression Visibility Wind Speed Wind Dir Waves Ship Positions

Gure Fatima

Last reported at 2017-Jun-19 17:07 UTC. Time now 2017-Jun-25 19:08 UTC.
Position N 43°39' W 006°17'.

Length 28 m; draft 3.2 m.

Type: Fishing. MMSI: 224081840.

Date/timePositionNaut miles runAvg speedWind from/ knotsBaromVisibWave heightAir tempDewpointWater temp
2017-Jun-19 17:07N 43°39' W 006°17'1 8.2
2017-Jun-19 16:57N 43°39' W 006°15'4 8.4
2017-Jun-19 16:27N 43°38' W 006°09'4 8.7
2017-Jun-19 16:00N 43°37' W 006°04'4 8.3
2017-Jun-19 15:30N 43°36' W 005°58'1 0.0
2017-Jun-18 11:07N 43°36' W 005°57'1 6.6
2017-Jun-18 10:58N 43°36' W 005°58'4 7.6
2017-Jun-18 10:29N 43°37' W 006°03'4 7.4
2017-Jun-18 09:59N 43°38' W 006°08'5 7.1
2017-Jun-18 09:17N 43°39' W 006°15'3 7.1
2017-Jun-18 08:50N 43°40' W 006°19'4 7.2
2017-Jun-18 08:12N 43°41' W 006°25'  
Track history (hours):
 
Tides and Currents Weather Stations Pressure Air Temp Water Temp Dewpoint Dewpoint Depression Visibility Wind Speed Wind Dir Waves Ship Positions

Gure Fatima

Last reported at 2017-Jun-19 17:07 UTC. Time now 2017-Jun-25 19:08 UTC.
Position N 43°39' W 006°17'.

Length 28 m; draft 3.2 m.

Type: Fishing. MMSI: 224081840.

Date/timePositionNaut miles runAvg speedWind from/ knotsBaromVisibWave heightAir tempDewpointWater temp
2017-Jun-19 17:07N 43°39' W 006°17'1 8.2
2017-Jun-19 16:57N 43°39' W 006°15'4 8.4
2017-Jun-19 16:27N 43°38' W 006°09'4 8.7
2017-Jun-19 16:00N 43°37' W 006°04'4 8.3
2017-Jun-19 15:30N 43°36' W 005°58'1 0.0
2017-Jun-18 11:07N 43°36' W 005°57'1 6.6
2017-Jun-18 10:58N 43°36' W 005°58'4 7.6
2017-Jun-18 10:29N 43°37' W 006°03'4 7.4
2017-Jun-18 09:59N 43°38' W 006°08'5 7.1
2017-Jun-18 09:17N 43°39' W 006°15'3 7.1
2017-Jun-18 08:50N 43°40' W 006°19'4 7.2
2017-Jun-18 08:12N 43°41' W 006°25'  

Dump ship's entire track history